Terminal Aerodrome Forecast
Issued by NWS Des Moines, IA

Current Version | Previous Version | Text Only | Print | Product List | Glossary On
Versions: 1 2 3 4 5 6 7 8 9 10 11 12 13 14 15 16 17 18 19 20 21 22 23 24
000
FTUS43 KDMX 241742
TAFDSM
TAF
KDSM 241742Z 2418/2518 20012KT 4SM BR OVC006
     FM242300 25006KT 5SM BR BKN025 BKN120
     FM250100 28006KT P6SM SCT200
     FM250500 31005KT P6SM SCT250
     FM251400 35007KT P6SM SKC=

USA.gov is the U.S. government's official web portal to all federal, state and local government web resources and services.